WARNING - Change wsUserSettings.php: $SITE["topfolder"] from : weather28m/ to: ./
Welkom op onze website -


Webcam zuid Meer informatie Webcam zuid


Webcam noord Meer informatie Webcam noord


Onweer radar Meer informatie blitzortung!


Regen radar Meer informatie rain snow radar


Bezoek onze andere website:

Template documentation
and downloads

Onze andere website


U vindt ons ook hier:

Het Weer Aktueel

UK Metoffice

European Weather Network

WeatherCloud

Weather Underground

Austria Weather Network

AWEKAS

Citizen Weather Observer Program (CWOP)

HAMweather, WeatherForYou, PWS Weather

Wetterpage 24

Roosendaal op internet

VWKWEB

RadioZuidWestFM



Het weer levert geen direct gevaar op.    Er zijn geen waarschuwingen afgegeven.

METAR rapporten vliegvelden

   
EHWO - Bergen op Zoom
Gewijzigd: 27-01-2020 13:55
Bewolking  
Bewolking  
   Wind: ZW 16.7 km/h
Wind: ZW 16.7 km/h
Temperatuur: 9°C
Voelt als: 7°C
Dauwpunt: 7°C
Vochtigheid: 87%
Barometer: 1003 hPa
Bewolking: Bewolking
Zicht: meer dan 10 km
Bewolking: Licht bewolkt 1900 ft,
Gedeeltelijk bewolkt 2400 ft,
Bewolking 13000 ft
EHWO 271255Z AUTO 22009KT 180V260 9999 FEW019 SCT024 OVC130 09/07 Q1003 WHT 21010KT 9999 FEW015 BKN040 BKN140 TEMPO BKN015 BKN040 BKN140
EHWO - Woensdrecht
Gewijzigd: 27-01-2020 13:55
Bewolking  
Bewolking  
   Wind: ZW 16.7 km/h
Wind: ZW 16.7 km/h
Temperatuur: 9°C
Voelt als: 7°C
Dauwpunt: 7°C
Vochtigheid: 87%
Barometer: 1003 hPa
Bewolking: Bewolking
Zicht: meer dan 10 km
Bewolking: Licht bewolkt 1900 ft,
Gedeeltelijk bewolkt 2400 ft,
Bewolking 13000 ft
EHWO 271255Z AUTO 22009KT 180V260 9999 FEW019 SCT024 OVC130 09/07 Q1003 WHT 21010KT 9999 FEW015 BKN040 BKN140 TEMPO BKN015 BKN040 BKN140
EHWO - Steenbergen
Gewijzigd: 27-01-2020 13:55
Bewolking  
Bewolking  
   Wind: ZW 16.7 km/h
Wind: ZW 16.7 km/h
Temperatuur: 9°C
Voelt als: 7°C
Dauwpunt: 7°C
Vochtigheid: 87%
Barometer: 1003 hPa
Bewolking: Bewolking
Zicht: meer dan 10 km
Bewolking: Licht bewolkt 1900 ft,
Gedeeltelijk bewolkt 2400 ft,
Bewolking 13000 ft
EHWO 271255Z AUTO 22009KT 180V260 9999 FEW019 SCT024 OVC130 09/07 Q1003 WHT 21010KT 9999 FEW015 BKN040 BKN140 TEMPO BKN015 BKN040 BKN140
EHWO - Oud-Gastel
Gewijzigd: 27-01-2020 13:55
Bewolking  
Bewolking  
   Wind: ZW 16.7 km/h
Wind: ZW 16.7 km/h
Temperatuur: 9°C
Voelt als: 7°C
Dauwpunt: 7°C
Vochtigheid: 87%
Barometer: 1003 hPa
Bewolking: Bewolking
Zicht: meer dan 10 km
Bewolking: Licht bewolkt 1900 ft,
Gedeeltelijk bewolkt 2400 ft,
Bewolking 13000 ft
EHWO 271255Z AUTO 22009KT 180V260 9999 FEW019 SCT024 OVC130 09/07 Q1003 WHT 21010KT 9999 FEW015 BKN040 BKN140 TEMPO BKN015 BKN040 BKN140
EHWO - Oudenbosch
Gewijzigd: 27-01-2020 13:55
Bewolking  
Bewolking  
   Wind: ZW 16.7 km/h
Wind: ZW 16.7 km/h
Temperatuur: 9°C
Voelt als: 7°C
Dauwpunt: 7°C
Vochtigheid: 87%
Barometer: 1003 hPa
Bewolking: Bewolking
Zicht: meer dan 10 km
Bewolking: Licht bewolkt 1900 ft,
Gedeeltelijk bewolkt 2400 ft,
Bewolking 13000 ft
EHWO 271255Z AUTO 22009KT 180V260 9999 FEW019 SCT024 OVC130 09/07 Q1003 WHT 21010KT 9999 FEW015 BKN040 BKN140 TEMPO BKN015 BKN040 BKN140
EHWO - Rucphen
Gewijzigd: 27-01-2020 13:55
Bewolking  
Bewolking  
   Wind: ZW 16.7 km/h
Wind: ZW 16.7 km/h
Temperatuur: 9°C
Voelt als: 7°C
Dauwpunt: 7°C
Vochtigheid: 87%
Barometer: 1003 hPa
Bewolking: Bewolking
Zicht: meer dan 10 km
Bewolking: Licht bewolkt 1900 ft,
Gedeeltelijk bewolkt 2400 ft,
Bewolking 13000 ft
EHWO 271255Z AUTO 22009KT 180V260 9999 FEW019 SCT024 OVC130 09/07 Q1003 WHT 21010KT 9999 FEW015 BKN040 BKN140 TEMPO BKN015 BKN040 BKN140
EHWO - Bergen op Zoom
Gewijzigd: 27-01-2020 13:55
Bewolking  
Bewolking  
   Wind: ZW 16.7 km/h
Wind: ZW 16.7 km/h
Temperatuur: 9°C
Voelt als: 7°C
Dauwpunt: 7°C
Vochtigheid: 87%
Barometer: 1003 hPa
Bewolking: Bewolking
Zicht: meer dan 10 km
Bewolking: Licht bewolkt 1900 ft,
Gedeeltelijk bewolkt 2400 ft,
Bewolking 13000 ft
EHWO 271255Z AUTO 22009KT 180V260 9999 FEW019 SCT024 OVC130 09/07 Q1003 WHT 21010KT 9999 FEW015 BKN040 BKN140 TEMPO BKN015 BKN040 BKN140
EHWO - Fijnaart
Gewijzigd: 27-01-2020 13:55
Bewolking  
Bewolking  
   Wind: ZW 16.7 km/h
Wind: ZW 16.7 km/h
Temperatuur: 9°C
Voelt als: 7°C
Dauwpunt: 7°C
Vochtigheid: 87%
Barometer: 1003 hPa
Bewolking: Bewolking
Zicht: meer dan 10 km
Bewolking: Licht bewolkt 1900 ft,
Gedeeltelijk bewolkt 2400 ft,
Bewolking 13000 ft
EHWO 271255Z AUTO 22009KT 180V260 9999 FEW019 SCT024 OVC130 09/07 Q1003 WHT 21010KT 9999 FEW015 BKN040 BKN140 TEMPO BKN015 BKN040 BKN140
EHWO - Ossendrecht
Gewijzigd: 27-01-2020 13:55
Bewolking  
Bewolking  
   Wind: ZW 16.7 km/h
Wind: ZW 16.7 km/h
Temperatuur: 9°C
Voelt als: 7°C
Dauwpunt: 7°C
Vochtigheid: 87%
Barometer: 1003 hPa
Bewolking: Bewolking
Zicht: meer dan 10 km
Bewolking: Licht bewolkt 1900 ft,
Gedeeltelijk bewolkt 2400 ft,
Bewolking 13000 ft
EHWO 271255Z AUTO 22009KT 180V260 9999 FEW019 SCT024 OVC130 09/07 Q1003 WHT 21010KT 9999 FEW015 BKN040 BKN140 TEMPO BKN015 BKN040 BKN140

Script ontwikkeld door  Saratoga-weather.org Aangepast voor de template door  Weerstation Leuven

Apparatuur in gebruik:

Weerstation
Davis VP2

Weerprogramma
Meteobridge

Weercomputer
Shuttle

Webleverancier
WeservIT

Davis VP2

Meteobridge

Shuttle

WeservIT